Latest Weather Observations for McArthur River Mine

IDD60801

Issued at 5:33 pm CST Friday 27 March 2015 (issued every 30 minutes, with the page automatically refreshed every 10 minutes)

About weather observations | Map of weather stations | Latest weather observations for NT | Other Formats
Station Details ID: 014704 Name: MCARTHUR RIVER MINE AIRPORT Lat: -16.44 Lon: 136.08 Height: 40.0 m
Data from the previous 72 hours. | See also: Recent months at McArthur River Mine
Date/Time
CST
Temp
°C
App
Temp
°C
Dew
Point
Rel
Hum
%
Delta-T
°C
Wind Press
QNH
hPa
Press
MSL
hPa
Rain
since 9 am
mm
Dir
 
Spd
km/h
Gust
km/h
Spd
kts
Gust
kts
27/05:30pm 36.3 32.8 3.5 13 17.3 SSE 11 15 6 8 1011.4 - 0.0
27/05:00pm 36.7 34.2 4.9 14 17.2 ESE 7 11 4 6 1011.3 - 0.0
27/04:30pm 36.2 32.9 2.3 12 17.5 SE 9 15 5 8 1011.2 - 0.0
27/04:00pm 36.6 33.1 3.7 13 17.4 SE 11 20 6 11 1011.3 - 0.0
27/03:30pm 37.4 32.7 3.2 12 18.1 SE 17 22 9 12 1011.4 - 0.0
27/03:00pm 37.0 33.0 2.9 12 17.9 ESE 13 22 7 12 1011.5 1011.2 0.0
27/02:30pm 37.0 32.8 4.0 13 17.6 SE 15 20 8 11 1011.7 - 0.0
27/02:00pm 36.7 32.1 3.8 13 17.5 SE 17 24 9 13 1012.1 - 0.0
27/01:30pm 35.9 31.2 3.2 13 17.1 SE 17 32 9 17 1012.8 - 0.0
27/01:00pm 35.8 30.9 2.0 12 17.3 ESE 17 28 9 15 1013.5 - 0.0
27/12:30pm 35.6 30.3 1.8 12 17.3 SE 19 28 10 15 1014.2 - 0.0
27/12:00pm 35.0 30.7 3.5 14 16.5 E 15 20 8 11 1014.9 1014.6 0.0
27/11:30am 34.2 28.9 1.9 13 16.4 SE 19 28 10 15 1015.5 - 0.0
27/11:00am 34.3 29.8 4.0 15 15.9 ESE 17 26 9 14 1015.9 - 0.0
27/10:30am 33.5 29.4 4.2 16 15.4 ESE 15 26 8 14 1016.2 - 0.0
27/10:00am 32.7 28.1 3.6 16 15.0 SE 17 24 9 13 1016.2 - 0.0
27/09:30am 31.5 27.7 5.8 20 13.7 SE 15 22 8 12 1016.0 - 0.0
27/09:00am 30.3 26.4 6.9 23 12.6 SSE 17 24 9 13 1016.1 1015.9 0.0
27/08:30am 28.6 26.0 9.3 30 10.7 S 13 17 7 9 1015.8 - 0.0
27/08:00am 27.3 26.2 10.5 35 9.5 S 7 11 4 6 1015.6 - 0.0
27/07:30am 26.0 24.7 11.4 40 8.3 S 9 13 5 7 1015.3 - 0.0
27/07:00am 25.4 25.3 13.9 49 6.8 S 7 9 4 5 1014.9 - 0.0
27/06:30am 25.9 26.4 16.5 56 5.8 S 9 13 5 7 1014.8 - 0.0
27/06:00am 25.6 30.5 24.6 94 0.7 S 7 9 4 5 1014.5 1014.2 0.0
27/05:30am 25.8 31.4 25.8 100 0.0 S 7 9 4 5 1014.4 - 0.0
27/05:00am 26.2 31.5 25.2 94 0.7 SSW 7 9 4 5 1014.4 - 0.0
27/04:30am 25.8 31.4 25.8 100 0.0 W 7 7 4 4 1014.3 - 0.0
27/04:00am 25.8 31.6 25.8 100 0.0 WSW 6 7 3 4 1014.2 - 0.0
27/03:30am 25.9 32.2 25.9 100 0.0 W 4 6 2 3 1014.3 - 0.0
27/03:00am 26.2 32.2 26.0 99 0.1 W 6 7 3 4 1014.5 1014.2 0.0
27/02:30am 26.5 32.1 25.5 94 0.7 NW 6 7 3 4 1014.8 - 0.0
27/02:00am 26.5 32.1 25.5 94 0.7 NNW 6 7 3 4 1015.2 - 0.0
27/01:30am 26.6 32.8 25.2 92 1.0 W 2 6 1 3 1015.5 - 0.0
27/01:00am 27.1 32.4 24.4 85 1.9 SW 4 7 2 4 1015.8 - 0.0
27/12:30am 27.8 31.9 23.2 76 3.1 S 7 13 4 7 1015.9 - 0.0
27/12:00am 27.0 30.0 25.2 90 1.3 S 19 22 10 12 1016.1 1015.9 0.0
 
Date/Time
CST
Temp
°C
App
Temp
°C
Dew
Point
Rel
Hum
%
Delta-T
°C
Wind Press
QNH
hPa
Press
MSL
hPa
Rain
since 9 am
mm
Dir
 
Spd
km/h
Gust
km/h
Spd
kts
Gust
kts
26/11:30pm 27.5 33.3 24.5 84 2.1 NNE 2 7 1 4 1015.7 - 0.0
26/11:00pm 27.0 32.0 24.5 86 1.7 N 6 7 3 4 1015.5 - 0.0
26/10:30pm 27.2 33.1 24.1 83 2.1 CALM 0 0 0 0 1015.5 - 0.0
26/10:00pm 27.7 33.1 23.9 80 2.6 N 2 7 1 4 1015.6 - 0.0
26/09:30pm 28.0 33.1 22.7 73 3.6 CALM 0 0 0 0 1015.5 - 0.0
26/09:00pm 28.8 31.7 21.0 62 5.2 N 7 9 4 5 1015.3 1015.0 0.0
26/08:30pm 28.9 32.4 21.9 66 4.7 N 6 7 3 4 1014.8 - 0.0
26/08:00pm 29.3 32.4 21.0 61 5.5 NNE 6 9 3 5 1014.4 - 0.0
26/07:30pm 29.6 31.9 20.7 58 5.9 ENE 9 11 5 6 1014.1 - 0.0
26/07:00pm 29.5 32.3 20.9 60 5.7 ENE 7 11 4 6 1013.9 - 0.0
26/06:30pm 30.3 33.1 20.8 56 6.3 ENE 7 9 4 5 1013.4 - 0.0
26/06:00pm 30.9 33.6 21.4 57 6.4 E 9 13 5 7 1013.1 1012.8 0.0
26/05:30pm 31.4 33.4 20.7 53 7.1 NE 11 15 6 8 1012.6 - 0.0
26/05:00pm 31.1 32.3 20.7 54 6.9 ENE 15 20 8 11 1012.4 - 0.0
26/04:30pm 31.5 32.9 21.1 54 7.0 NE 15 26 8 14 1012.2 - 0.0
26/04:00pm 31.6 30.9 19.6 49 7.9 NE 22 35 12 19 1012.1 - 0.0
26/03:30pm 34.1 35.2 16.5 35 11.2 SE 6 9 3 5 1012.0 - 0.0
26/03:00pm 34.8 34.9 17.5 35 11.2 E 13 20 7 11 1012.2 1011.9 0.0
26/02:30pm 34.5 35.9 17.7 37 10.9 NE 7 17 4 9 1012.3 - 0.0
26/02:00pm 33.8 36.2 18.7 40 9.9 ESE 4 9 2 5 1012.8 - 0.0
26/01:30pm 34.4 35.1 18.0 37 10.6 E 11 19 6 10 1013.3 - 0.0
26/01:00pm 33.7 32.7 16.5 35 10.9 ENE 17 24 9 13 1014.1 - 0.0
26/12:30pm 34.0 34.6 17.7 38 10.5 ESE 11 19 6 10 1014.5 - 0.0
26/12:00pm 34.0 35.1 18.9 41 9.9 SE 11 20 6 11 1014.9 1014.6 0.0
26/11:30am 32.8 34.2 19.6 45 8.7 ESE 11 20 6 11 1015.5 - 0.0
26/11:00am 32.4 35.0 21.9 54 7.1 S 11 15 6 8 1015.9 - 0.0
26/10:30am 30.8 34.3 23.5 65 5.0 S 11 17 6 9 1016.1 - 0.0
26/10:00am 29.8 33.2 24.0 71 4.0 SSE 13 20 7 11 1016.4 - 0.0
26/09:30am 28.8 33.0 24.8 79 2.8 S 11 15 6 8 1016.5 - 0.0
26/09:00am 27.7 33.6 26.8 95 0.6 S 9 13 5 7 1016.4 1016.2 4.0
26/08:30am 26.7 32.9 26.7 100 0.0 S 7 11 4 6 1016.3 - 4.0
26/08:00am 25.9 - 26.1 - - S 7 9 4 5 1016.0 - 4.0
26/07:30am 25.3 - 25.5 - - CALM 0 0 0 0 1015.7 - 4.0
26/07:00am 24.9 - 25.1 - - CALM 0 6 0 3 1015.3 - 4.0
26/06:30am 24.9 - 25.1 - - S 7 9 4 5 1014.8 - 4.0
26/06:00am 24.7 - 24.9 - - S 6 7 3 4 1014.5 1014.2 4.0
26/05:30am 24.8 - 25.0 - - S 6 7 3 4 1014.4 - 4.0
26/05:00am 24.9 - 25.1 - - S 6 9 3 5 1014.4 - 4.0
26/04:30am 24.8 - 25.0 - - CALM 0 0 0 0 1014.3 - 4.0
26/04:00am 24.9 - 25.1 - - SW 6 7 3 4 1014.3 - 4.0
26/03:30am 24.7 - 24.9 - - WSW 7 9 4 5 1014.3 - 4.0
26/03:00am 24.8 - 25.0 - - WSW 6 9 3 5 1014.2 1013.9 4.0
26/02:30am 24.8 - 25.0 - - WNW 7 9 4 5 1014.1 - 4.0
26/02:00am 24.9 - 25.1 - - WNW 4 9 2 5 1014.1 - 4.0
26/01:30am 25.0 - 25.2 - - CALM 0 0 0 0 1014.1 - 4.0
26/01:00am 24.8 - 25.0 - - SSE 7 9 4 5 1014.1 - 4.0
26/12:30am 24.8 - 25.0 - - S 7 9 4 5 1014.5 - 4.0
26/12:00am 25.0 - 25.2 - - S 7 9 4 5 1014.9 1014.6 4.0
 
Date/Time
CST
Temp
°C
App
Temp
°C
Dew
Point
Rel
Hum
%
Delta-T
°C
Wind Press
QNH
hPa
Press
MSL
hPa
Rain
since 9 am
mm
Dir
 
Spd
km/h
Gust
km/h
Spd
kts
Gust
kts
25/11:30pm 25.0 - 25.2 - - S 6 7 3 4 1015.3 - 4.0
25/11:00pm 25.1 - 25.3 - - S 4 7 2 4 1015.7 - 4.0
25/10:30pm 25.1 - 25.3 - - CALM 0 0 0 0 1015.7 - 4.0
25/10:00pm 25.0 - 25.2 - - SSE 2 6 1 3 1015.5 - 4.0
25/09:30pm 25.0 - 25.2 - - SE 2 6 1 3 1015.4 - 4.0
25/09:00pm 25.1 29.5 25.1 100 0.0 SE 11 17 6 9 1015.1 1014.8 4.0
25/08:30pm 24.9 - 25.1 - - SE 9 20 5 11 1014.8 - 4.0
25/08:00pm 24.7 - 24.9 - - CALM 0 0 0 0 1014.4 - 4.0
25/07:30pm 24.5 - 24.7 - - E 6 6 3 3 1014.1 - 4.0
25/07:00pm 24.1 29.6 24.1 100 0.0 NNE 2 6 1 3 1013.6 - 4.0
25/06:30pm 24.0 25.6 22.8 93 0.8 NNE 19 30 10 16 1013.2 - 3.6
25/06:00pm 26.1 26.9 21.7 77 2.9 NNE 20 33 11 18 1012.9 1012.6 3.0
25/05:30pm 28.7 30.6 22.0 67 4.5 ENE 15 20 8 11 1012.0 - 3.0
25/05:00pm 28.5 29.4 22.7 71 3.9 E 22 35 12 19 1011.5 - 3.0
25/04:30pm 28.6 32.7 23.3 73 3.6 SE 7 9 4 5 1011.0 - 2.8
25/04:00pm 26.7 28.3 21.5 73 3.5 ENE 15 24 8 13 1011.4 - 2.8
25/03:30pm 27.7 27.6 20.8 66 4.6 E 22 37 12 20 1011.4 - 2.4
25/03:00pm 28.3 31.5 22.3 70 4.1 SSE 9 13 5 7 1011.0 1010.7 2.4
25/02:30pm 25.5 29.6 25.2 98 0.2 SE 13 17 7 9 1011.4 - 2.4
25/02:11pm 25.6 26.5 24.0 91 1.1 E 26 37 14 20 1011.9 - 1.4
25/02:00pm 28.5 30.3 23.6 75 3.4 ESE 20 33 11 18 1011.6 - 0.0
25/01:30pm 31.8 33.7 21.3 53 7.1 E 13 17 7 9 1011.8 - 0.0
25/01:00pm 31.9 33.2 20.8 51 7.4 NE 15 22 8 12 1012.3 - 0.0
25/12:30pm 32.2 33.9 21.7 54 7.1 E 15 22 8 12 1012.6 - 0.0
25/12:00pm 30.9 32.5 21.4 57 6.4 E 15 24 8 13 1013.0 1012.7 0.0
25/11:30am 30.8 32.5 21.6 58 6.2 ENE 15 26 8 14 1013.4 - 0.0
25/11:00am 30.2 32.3 22.4 63 5.3 ENE 15 22 8 12 1013.8 - 0.0
25/10:30am 30.3 32.6 22.7 64 5.2 ENE 15 26 8 14 1014.1 - 0.0
25/10:00am 29.2 32.9 23.9 73 3.7 E 11 15 6 8 1014.3 - 0.0
25/09:30am 28.3 32.4 24.5 80 2.6 E 11 15 6 8 1014.3 - 0.0
25/09:00am 27.4 32.4 25.4 89 1.4 E 9 15 5 8 1013.9 1013.6 4.8
25/08:30am 26.7 33.1 26.7 100 0.0 ESE 6 9 3 5 1013.6 - 4.8
25/08:00am 25.8 31.1 25.8 100 0.0 ESE 9 11 5 6 1013.3 - 4.8
25/07:30am 25.4 31.0 25.4 100 0.0 SSE 6 7 3 4 1013.3 - 4.8
25/07:00am 25.2 31.8 25.2 100 0.0 CALM 0 0 0 0 1013.3 - 4.8
25/06:30am 25.1 30.9 25.1 100 0.0 SE 4 7 2 4 1013.0 - 4.8
25/06:00am 25.3 30.6 25.3 100 0.0 SSE 7 11 4 6 1012.6 1012.3 4.8
25/05:32am 25.2 30.5 25.2 100 0.0 SE 7 13 4 7 1012.5 - 4.8
25/05:30am 25.2 30.5 25.2 100 0.0 SE 7 13 4 7 1012.5 - 4.8
25/05:20am 25.3 30.6 25.3 100 0.0 SE 7 11 4 6 1012.5 - 4.8
25/05:00am 25.4 30.4 25.4 100 0.0 SSE 9 13 5 7 1012.5 - 4.8
25/04:30am 25.7 - 25.9 - - SSE 13 19 7 10 1012.1 - 4.8
25/04:00am 25.8 - 26.0 - - SSE 9 13 5 7 1012.1 - 4.8
25/03:30am 25.8 - 26.0 - - S 7 11 4 6 1012.2 - 4.8
25/03:00am 25.8 - 26.0 - - S 6 9 3 5 1012.3 1012.0 4.8
25/02:30am 25.7 - 25.9 - - S 7 9 4 5 1012.2 - 4.8
25/02:00am 25.6 - 25.8 - - SSW 6 7 3 4 1012.3 - 4.8
25/01:30am 25.6 - 25.8 - - S 6 7 3 4 1012.9 - 4.8
25/01:00am 25.6 - 25.8 - - SW 2 6 1 3 1013.0 - 4.8
25/12:30am 25.8 - 26.0 - - SW 6 7 3 4 1013.5 - 4.8
25/12:00am 25.9 - 26.1 - - S 2 7 1 4 1013.8 1013.5 4.8
 
Date/Time
CST
Temp
°C
App
Temp
°C
Dew
Point
Rel
Hum
%
Delta-T
°C
Wind Press
QNH
hPa
Press
MSL
hPa
Rain
since 9 am
mm
Dir
 
Spd
km/h
Gust
km/h
Spd
kts
Gust
kts
24/11:30pm 26.0 - 26.2 - - S 6 7 3 4 1014.1 - 4.8
24/11:00pm 26.0 - 26.2 - - CALM 0 0 0 0 1014.2 - 4.8
24/10:30pm 25.9 - 26.1 - - CALM 0 0 0 0 1014.2 - 4.8
24/10:00pm 26.0 - 26.2 - - CALM 0 6 0 3 1014.3 - 4.8
24/09:30pm 25.7 - 25.9 - - SW 9 11 5 6 1014.2 - 4.8
24/09:00pm 25.9 - 26.1 - - SW 6 7 3 4 1014.1 1013.8 4.4
24/08:30pm 26.1 33.3 26.1 100 0.0 CALM 0 9 0 5 1013.6 - 3.4
24/08:00pm 26.4 31.8 25.5 95 0.6 N 7 9 4 5 1013.1 - 2.2
24/07:30pm 28.3 32.1 23.4 75 3.4 ENE 9 13 5 7 1012.5 - 1.6
24/07:00pm 29.1 32.3 23.1 70 4.1 NE 11 20 6 11 1011.6 - 1.6
24/06:30pm 29.1 33.2 23.3 71 4.0 E 7 11 4 6 1011.1 - 1.6
24/06:00pm 29.4 32.9 22.9 68 4.4 E 9 13 5 7 1010.9 1010.6 1.6

Other Formats:

Comma delimited format used in spreadsheet applications
http://www.bom.gov.au/fwo/IDD60801/IDD60801.94239.axf

JavaScript Object Notation format (JSON) in row-major order
http://www.bom.gov.au/fwo/IDD60801/IDD60801.94239.json